Time,TemperatureF,DewpointF,PressureIn,WindDirection,WindDirectionDegrees,WindSpeedMPH,WindSpeedGustMPH,Humidity,HourlyPrecipIn,Conditions,Clouds,dailyrainin,SoftwareType,DateUTC
2013-05-01 00:03:00,73.8,72.0,29.73,ESE,110,12.0,18.0,94,0.00,,,0.00,meteohub,2013-05-01 05:03:00,
2013-05-01 00:08:00,73.8,72.0,29.73,ESE,120,14.0,18.0,94,0.00,,,0.00,meteohub,2013-05-01 05:08:00,
2013-05-01 00:13:00,73.6,71.8,29.73,SE,128,7.0,18.0,94,0.00,,,0.00,meteohub,2013-05-01 05:13:00,
2013-05-01 00:18:00,73.6,71.8,29.73,ESE,120,10.0,17.0,94,0.00,,,0.00,meteohub,2013-05-01 05:18:00,
2013-05-01 00:23:00,73.6,71.8,29.73,SE,131,9.0,17.0,94,0.00,,,0.00,meteohub,2013-05-01 05:23:00,
2013-05-01 00:28:00,73.8,72.0,29.73,SE,143,12.0,17.0,94,0.00,,,0.00,meteohub,2013-05-01 05:28:00,
2013-05-01 00:33:00,73.8,72.0,29.73,SSE,153,10.0,17.0,94,0.00,,,0.00,meteohub,2013-05-01 05:33:00,
2013-05-01 00:38:00,73.8,71.6,29.73,SSE,155,8.0,17.0,93,0.00,,,0.00,meteohub,2013-05-01 05:38:00,
2013-05-01 00:43:00,73.8,71.6,29.73,SE,127,7.0,17.0,93,0.00,,,0.00,meteohub,2013-05-01 05:43:00,
2013-05-01 00:48:00,73.8,71.6,29.73,ESE,118,8.0,14.0,93,0.00,,,0.00,meteohub,2013-05-01 05:48:00,
2013-05-01 00:53:00,73.8,72.0,29.74,SE,146,9.0,14.0,94,0.00,,,0.00,meteohub,2013-05-01 05:53:00,
2013-05-01 00:58:00,73.8,72.0,29.74,SE,127,11.0,12.0,94,0.00,,,0.00,meteohub,2013-05-01 05:58:00,
2013-05-01 01:03:00,73.8,72.0,29.74,SE,143,6.0,12.0,94,0.00,,,0.00,meteohub,2013-05-01 06:03:00,
2013-05-01 01:08:00,73.8,72.0,29.74,SE,139,8.0,12.0,94,0.00,,,0.00,meteohub,2013-05-01 06:08:00,
2013-05-01 01:13:00,73.8,72.0,29.74,SE,132,7.0,12.0,94,0.00,,,0.00,meteohub,2013-05-01 06:13:00,
2013-05-01 01:18:00,73.8,72.0,29.74,SSE,162,7.0,12.0,94,0.00,,,0.00,meteohub,2013-05-01 06:18:00,
2013-05-01 01:23:00,73.8,72.0,29.74,SE,141,5.0,11.0,94,0.00,,,0.00,meteohub,2013-05-01 06:23:00,
2013-05-01 01:28:00,73.8,72.0,29.74,SSE,160,5.0,11.0,94,0.00,,,0.00,meteohub,2013-05-01 06:28:00,
2013-05-01 01:33:00,73.8,72.0,29.73,SE,133,5.0,10.0,94,0.00,,,0.00,meteohub,2013-05-01 06:33:00,
2013-05-01 01:38:00,73.6,71.8,29.73,SE,137,3.0,9.0,94,0.00,,,0.00,meteohub,2013-05-01 06:38:00,
2013-05-01 01:43:00,73.6,71.8,29.73,SE,137,4.0,9.0,94,0.00,,,0.00,meteohub,2013-05-01 06:43:00,
2013-05-01 01:48:00,73.8,72.0,29.73,SE,146,4.0,8.0,94,0.00,,,0.00,meteohub,2013-05-01 06:48:00,
2013-05-01 01:53:00,73.8,72.0,29.73,SE,134,6.0,8.0,94,0.00,,,0.00,meteohub,2013-05-01 06:53:00,
2013-05-01 01:58:00,73.8,72.0,29.73,SE,136,5.0,7.0,94,0.00,,,0.00,meteohub,2013-05-01 06:58:00,
2013-05-01 02:03:00,73.9,72.1,29.73,SE,127,5.0,7.0,94,0.00,,,0.00,meteohub,2013-05-01 07:03:00,
2013-05-01 02:08:00,73.8,72.0,29.73,ESE,120,6.0,9.0,94,0.00,,,0.00,meteohub,2013-05-01 07:08:00,
2013-05-01 02:13:00,73.8,72.0,29.73,SE,137,6.0,10.0,94,0.00,,,0.00,meteohub,2013-05-01 07:13:00,
2013-05-01 02:18:00,73.8,72.0,29.72,ESE,111,5.0,10.0,94,0.00,,,0.00,meteohub,2013-05-01 07:18:00,
2013-05-01 02:23:00,73.6,71.8,29.72,SE,143,6.0,10.0,94,0.00,,,0.00,meteohub,2013-05-01 07:23:00,
2013-05-01 02:29:00,73.6,71.8,29.72,SE,125,6.0,9.0,94,0.00,,,0.00,meteohub,2013-05-01 07:29:00,
2013-05-01 02:34:00,73.4,72.0,29.71,ESE,113,7.0,10.0,95,0.00,,,0.00,meteohub,2013-05-01 07:34:00,
2013-05-01 02:39:00,73.2,71.8,29.71,SSE,150,5.0,11.0,95,0.00,,,0.00,meteohub,2013-05-01 07:39:00,
2013-05-01 02:44:00,73.2,71.8,29.70,SE,143,5.0,11.0,95,0.00,,,0.00,meteohub,2013-05-01 07:44:00,
2013-05-01 02:49:00,73.0,71.6,29.70,ESE,112,6.0,11.0,95,0.00,,,0.00,meteohub,2013-05-01 07:49:00,
2013-05-01 02:54:00,72.9,71.4,29.70,ESE,107,5.0,10.0,95,0.00,,,0.00,meteohub,2013-05-01 07:54:00,
2013-05-01 02:59:00,72.9,71.6,29.70,SE,131,5.0,10.0,96,0.00,,,0.00,meteohub,2013-05-01 07:59:00,
2013-05-01 03:04:00,72.7,71.4,29.70,SE,134,4.0,10.0,96,0.00,,,0.00,meteohub,2013-05-01 08:04:00,
2013-05-01 03:09:00,72.9,71.6,29.70,ESE,114,3.0,9.0,96,0.00,,,0.00,meteohub,2013-05-01 08:09:00,
2013-05-01 03:14:00,72.9,71.6,29.70,SE,127,4.0,9.0,96,0.00,,,0.00,meteohub,2013-05-01 08:14:00,
2013-05-01 03:19:00,72.9,71.6,29.70,SE,133,3.0,7.0,96,0.00,,,0.00,meteohub,2013-05-01 08:19:00,
2013-05-01 03:24:00,73.0,71.8,29.70,SE,135,5.0,7.0,96,0.00,,,0.00,meteohub,2013-05-01 08:24:00,
2013-05-01 03:29:00,73.0,71.8,29.70,SE,134,4.0,7.0,96,0.00,,,0.00,meteohub,2013-05-01 08:29:00,
2013-05-01 03:35:00,73.0,71.8,29.70,SE,130,4.0,7.0,96,0.00,,,0.00,meteohub,2013-05-01 08:35:00,
2013-05-01 03:40:00,73.0,71.8,29.71,SE,135,4.0,7.0,96,0.00,,,0.00,meteohub,2013-05-01 08:40:00,
2013-05-01 03:45:00,73.0,71.8,29.71,SE,144,4.0,7.0,96,0.00,,,0.00,meteohub,2013-05-01 08:45:00,
2013-05-01 03:50:00,72.9,71.6,29.70,ESE,123,4.0,6.0,96,0.00,,,0.00,meteohub,2013-05-01 08:50:00,
2013-05-01 03:55:00,72.7,71.4,29.70,SE,127,4.0,5.0,96,0.00,,,0.00,meteohub,2013-05-01 08:55:00,
2013-05-01 04:00:00,72.7,71.4,29.70,SE,142,3.0,5.0,96,0.00,,,0.00,meteohub,2013-05-01 09:00:00,
2013-05-01 04:05:00,72.5,71.6,29.70,SE,135,2.0,5.0,97,0.00,,,0.00,meteohub,2013-05-01 09:05:00,
2013-05-01 04:10:00,72.3,71.4,29.70,SE,146,2.0,5.0,97,0.00,,,0.00,meteohub,2013-05-01 09:10:00,
2013-05-01 04:15:00,72.3,71.4,29.70,SE,127,2.0,5.0,97,0.00,,,0.00,meteohub,2013-05-01 09:15:00,
2013-05-01 04:20:00,72.1,71.2,29.70,SE,136,5.0,5.0,97,0.00,,,0.00,meteohub,2013-05-01 09:20:00,
2013-05-01 04:25:00,72.1,71.2,29.70,SSE,152,3.0,5.0,97,0.00,,,0.00,meteohub,2013-05-01 09:25:00,
2013-05-01 04:30:00,72.0,71.1,29.70,SE,135,3.0,5.0,97,0.00,,,0.00,meteohub,2013-05-01 09:30:00,
2013-05-01 04:35:00,72.0,71.1,29.69,SE,130,2.0,5.0,97,0.00,,,0.00,meteohub,2013-05-01 09:35:00,
2013-05-01 04:40:00,72.0,71.4,29.69,SE,130,3.0,6.0,98,0.00,,,0.00,meteohub,2013-05-01 09:40:00,
2013-05-01 04:45:00,72.0,71.4,29.69,SE,127,4.0,6.0,98,0.00,,,0.00,meteohub,2013-05-01 09:45:00,
2013-05-01 04:50:00,72.0,71.4,29.70,SE,135,4.0,6.0,98,0.00,,,0.00,meteohub,2013-05-01 09:50:00,
2013-05-01 04:55:00,72.0,71.4,29.70,SE,133,4.0,6.0,98,0.00,,,0.00,meteohub,2013-05-01 09:55:00,
2013-05-01 05:00:00,72.0,71.4,29.70,SE,138,4.0,6.0,98,0.00,,,0.00,meteohub,2013-05-01 10:00:00,
2013-05-01 05:05:00,72.0,71.4,29.70,SE,143,5.0,6.0,98,0.00,,,0.00,meteohub,2013-05-01 10:05:00,
2013-05-01 05:10:00,72.0,71.4,29.70,SE,144,5.0,7.0,98,0.00,,,0.00,meteohub,2013-05-01 10:10:00,
2013-05-01 05:15:00,72.1,71.6,29.70,SE,130,5.0,7.0,98,0.00,,,0.00,meteohub,2013-05-01 10:15:00,
2013-05-01 05:21:00,72.0,71.4,29.70,SE,127,4.0,6.0,98,0.00,,,0.00,meteohub,2013-05-01 10:21:00,
2013-05-01 05:25:00,72.0,71.4,29.70,SSE,150,3.0,6.0,98,0.00,,,0.00,meteohub,2013-05-01 10:25:00,
2013-05-01 05:31:00,72.0,71.4,29.70,SE,124,4.0,6.0,98,0.00,,,0.00,meteohub,2013-05-01 10:31:00,
2013-05-01 05:36:00,71.8,71.2,29.70,ESE,120,5.0,6.0,98,0.00,,,0.00,meteohub,2013-05-01 10:36:00,
2013-05-01 05:41:00,71.8,71.2,29.70,ESE,113,4.0,5.0,98,0.00,,,0.00,meteohub,2013-05-01 10:41:00,
2013-05-01 05:46:00,71.6,71.1,29.70,SE,130,4.0,6.0,98,0.00,,,0.00,meteohub,2013-05-01 10:46:00,
2013-05-01 05:51:00,71.4,70.9,29.70,SE,131,4.0,6.0,98,0.00,,,0.00,meteohub,2013-05-01 10:51:00,
2013-05-01 05:56:00,71.4,70.9,29.70,SE,146,5.0,6.0,98,0.00,,,0.00,meteohub,2013-05-01 10:56:00,
2013-05-01 06:01:00,71.4,70.9,29.71,SE,127,3.0,6.0,98,0.00,,,0.00,meteohub,2013-05-01 11:01:00,
2013-05-01 06:06:00,71.4,70.9,29.71,SE,124,6.0,6.0,98,0.00,,,0.00,meteohub,2013-05-01 11:06:00,
2013-05-01 06:11:00,71.4,71.1,29.71,SE,132,6.0,7.0,99,0.00,,,0.00,meteohub,2013-05-01 11:11:00,
2013-05-01 06:16:00,71.4,71.1,29.72,ESE,113,2.0,8.0,99,0.00,,,0.00,meteohub,2013-05-01 11:16:00,
2013-05-01 06:21:00,71.4,71.1,29.72,East,93,6.0,8.0,99,0.00,,,0.00,meteohub,2013-05-01 11:21:00,
2013-05-01 06:26:00,71.4,71.1,29.73,ESE,107,6.0,8.0,99,0.00,,,0.00,meteohub,2013-05-01 11:26:00,
2013-05-01 06:31:00,71.4,71.1,29.73,SE,141,4.0,8.0,99,0.00,,,0.00,meteohub,2013-05-01 11:31:00,
2013-05-01 06:36:00,71.4,71.1,29.73,SE,134,5.0,8.0,99,0.00,,,0.00,meteohub,2013-05-01 11:36:00,
2013-05-01 06:41:00,71.4,71.1,29.73,ESE,108,4.0,7.0,99,0.00,,,0.00,meteohub,2013-05-01 11:41:00,
2013-05-01 06:46:00,71.2,70.9,29.73,SE,141,5.0,7.0,99,0.00,,,0.00,meteohub,2013-05-01 11:46:00,
2013-05-01 06:51:00,71.2,70.9,29.74,ESE,113,4.0,7.0,99,0.00,,,0.00,meteohub,2013-05-01 11:51:00,
2013-05-01 06:56:00,71.2,70.9,29.74,East,98,4.0,7.0,99,0.00,,,0.00,meteohub,2013-05-01 11:56:00,
2013-05-01 07:01:00,71.2,70.9,29.74,SE,134,5.0,6.0,99,0.00,,,0.00,meteohub,2013-05-01 12:01:00,
2013-05-01 07:07:00,71.4,71.1,29.75,ESE,118,2.0,6.0,99,0.00,,,0.00,meteohub,2013-05-01 12:07:00,
2013-05-01 07:12:00,71.4,71.1,29.75,ESE,110,3.0,6.0,99,0.00,,,0.00,meteohub,2013-05-01 12:12:00,
2013-05-01 07:17:00,71.4,71.1,29.75,East,101,3.0,5.0,99,0.00,,,0.00,meteohub,2013-05-01 12:17:00,
2013-05-01 07:22:00,71.4,71.1,29.76,ESE,116,3.0,5.0,99,0.00,,,0.00,meteohub,2013-05-01 12:22:00,
2013-05-01 07:27:00,71.4,71.1,29.76,ESE,115,3.0,5.0,99,0.00,,,0.00,meteohub,2013-05-01 12:27:00,
2013-05-01 07:32:00,71.6,71.2,29.76,East,101,3.0,5.0,99,0.00,,,0.00,meteohub,2013-05-01 12:32:00,
2013-05-01 07:37:00,71.8,71.4,29.76,ESE,111,4.0,5.0,99,0.00,,,0.00,meteohub,2013-05-01 12:37:00,
2013-05-01 07:42:00,71.8,71.4,29.76,ESE,103,5.0,5.0,99,0.00,,,0.00,meteohub,2013-05-01 12:42:00,
2013-05-01 07:47:00,71.8,71.4,29.76,SE,124,4.0,5.0,99,0.00,,,0.00,meteohub,2013-05-01 12:47:00,
2013-05-01 07:52:00,71.8,71.4,29.76,ESE,114,3.0,5.0,99,0.00,,,0.00,meteohub,2013-05-01 12:52:00,
2013-05-01 07:57:00,71.8,71.4,29.77,SE,130,2.0,5.0,99,0.00,,,0.00,meteohub,2013-05-01 12:57:00,
2013-05-01 08:02:00,72.0,71.6,29.77,ESE,116,2.0,5.0,99,0.00,,,0.00,meteohub,2013-05-01 13:02:00,
2013-05-01 08:07:00,72.0,71.6,29.77,ESE,120,4.0,7.0,99,0.00,,,0.00,meteohub,2013-05-01 13:07:00,
2013-05-01 08:12:00,72.0,71.6,29.77,ESE,120,5.0,7.0,99,0.00,,,0.00,meteohub,2013-05-01 13:12:00,
2013-05-01 08:17:00,72.1,71.8,29.77,ESE,120,5.0,8.0,99,0.00,,,0.00,meteohub,2013-05-01 13:17:00,
2013-05-01 08:22:00,72.3,72.0,29.76,SE,130,5.0,8.0,99,0.00,,,0.00,meteohub,2013-05-01 13:22:00,
2013-05-01 08:27:00,72.5,72.1,29.76,SE,136,5.0,9.0,99,0.00,,,0.00,meteohub,2013-05-01 13:27:00,
2013-05-01 08:32:00,72.9,72.5,29.76,SE,137,4.0,9.0,99,0.00,,,0.00,meteohub,2013-05-01 13:32:00,
2013-05-01 08:37:00,73.2,72.9,29.76,SSE,155,6.0,9.0,99,0.00,,,0.00,meteohub,2013-05-01 13:37:00,
2013-05-01 08:42:00,73.9,73.6,29.76,SSE,156,5.0,9.0,99,0.00,,,0.00,meteohub,2013-05-01 13:42:00,
2013-05-01 08:47:00,74.7,73.2,29.76,SE,127,5.0,9.0,95,0.00,,,0.00,meteohub,2013-05-01 13:47:00,
2013-05-01 08:52:00,75.4,73.2,29.76,SE,139,4.0,12.0,93,0.00,,,0.00,meteohub,2013-05-01 13:52:00,
2013-05-01 08:57:00,75.9,73.4,29.76,SSE,150,4.0,12.0,92,0.00,,,0.00,meteohub,2013-05-01 13:57:00,
2013-05-01 09:02:00,75.9,73.0,29.76,SE,134,5.0,12.0,91,0.00,,,0.00,meteohub,2013-05-01 14:02:00,
2013-05-01 09:07:00,76.5,73.2,29.77,SE,136,8.0,10.0,90,0.00,,,0.00,meteohub,2013-05-01 14:07:00,
2013-05-01 09:12:00,76.3,73.0,29.77,SSE,150,4.0,10.0,90,0.00,,,0.00,meteohub,2013-05-01 14:12:00,
2013-05-01 09:17:00,76.6,73.2,29.77,SE,132,8.0,9.0,89,0.00,,,0.00,meteohub,2013-05-01 14:17:00,
2013-05-01 09:22:00,76.8,73.4,29.77,ESE,120,5.0,9.0,89,0.00,,,0.00,meteohub,2013-05-01 14:22:00,
2013-05-01 09:27:00,77.2,73.4,29.77,SE,128,6.0,9.0,88,0.00,,,0.00,meteohub,2013-05-01 14:27:00,
2013-05-01 09:32:00,77.2,73.4,29.77,SSE,160,6.0,11.0,88,0.00,,,0.00,meteohub,2013-05-01 14:32:00,
2013-05-01 09:37:00,77.4,73.2,29.77,SE,124,8.0,11.0,87,0.00,,,0.00,meteohub,2013-05-01 14:37:00,
2013-05-01 09:42:00,77.5,73.4,29.76,SE,127,5.0,11.0,87,0.00,,,0.00,meteohub,2013-05-01 14:42:00,
2013-05-01 09:47:00,77.9,73.4,29.76,SE,132,9.0,10.0,86,0.00,,,0.00,meteohub,2013-05-01 14:47:00,
2013-05-01 09:52:00,78.3,73.8,29.76,SSE,149,6.0,12.0,86,0.00,,,0.00,meteohub,2013-05-01 14:52:00,
2013-05-01 09:57:00,78.3,73.4,29.77,SE,132,9.0,13.0,85,0.00,,,0.00,meteohub,2013-05-01 14:57:00,
2013-05-01 10:02:00,78.3,73.4,29.77,ESE,119,6.0,13.0,85,0.00,,,0.00,meteohub,2013-05-01 15:02:00,
2013-05-01 10:07:00,78.4,73.2,29.77,ESE,117,9.0,13.0,84,0.00,,,0.00,meteohub,2013-05-01 15:07:00,
2013-05-01 10:12:00,78.4,73.2,29.77,SE,141,8.0,13.0,84,0.00,,,0.00,meteohub,2013-05-01 15:12:00,
2013-05-01 10:17:00,78.8,73.9,29.77,SE,129,7.0,13.0,85,0.00,,,0.00,meteohub,2013-05-01 15:17:00,
2013-05-01 10:22:00,79.0,73.0,29.77,SE,139,6.0,12.0,82,0.00,,,0.00,meteohub,2013-05-01 15:22:00,
2013-05-01 10:27:00,78.6,72.7,29.77,SE,143,7.0,12.0,82,0.00,,,0.00,meteohub,2013-05-01 15:27:00,
2013-05-01 10:32:00,78.4,72.1,29.78,SE,141,7.0,13.0,81,0.00,,,0.00,meteohub,2013-05-01 15:32:00,
2013-05-01 10:37:00,78.8,72.5,29.78,SSE,163,8.0,13.0,81,0.00,,,0.00,meteohub,2013-05-01 15:37:00,
2013-05-01 10:42:00,79.2,72.9,29.78,SE,136,12.0,12.0,81,0.00,,,0.00,meteohub,2013-05-01 15:42:00,
2013-05-01 10:47:00,79.7,72.7,29.78,ESE,109,6.0,13.0,79,0.00,,,0.00,meteohub,2013-05-01 15:47:00,
2013-05-01 10:52:00,80.1,72.5,29.78,South,169,7.0,13.0,78,0.00,,,0.00,meteohub,2013-05-01 15:52:00,
2013-05-01 10:57:00,79.9,72.3,29.78,SE,146,9.0,13.0,78,0.00,,,0.00,meteohub,2013-05-01 15:57:00,
2013-05-01 11:02:00,80.4,72.5,29.78,SSE,165,3.0,11.0,77,0.00,,,0.00,meteohub,2013-05-01 16:02:00,
2013-05-01 11:07:00,81.3,73.0,29.77,SSE,167,6.0,11.0,76,0.00,,,0.00,meteohub,2013-05-01 16:07:00,
2013-05-01 11:12:00,81.7,72.5,29.78,SE,133,12.0,12.0,74,0.00,,,0.00,meteohub,2013-05-01 16:12:00,
2013-05-01 11:17:00,81.3,71.8,29.78,ESE,119,9.0,13.0,73,0.00,,,0.00,meteohub,2013-05-01 16:17:00,
2013-05-01 11:22:00,81.9,72.3,29.78,SE,129,12.0,13.0,73,0.00,,,0.00,meteohub,2013-05-01 16:22:00,
2013-05-01 11:27:00,81.3,72.3,29.78,ESE,110,7.0,14.0,74,0.00,,,0.00,meteohub,2013-05-01 16:27:00,
2013-05-01 11:32:00,82.2,72.7,29.78,ESE,108,5.0,14.0,73,0.00,,,0.00,meteohub,2013-05-01 16:32:00,
2013-05-01 11:37:00,82.6,71.8,29.77,ESE,123,11.0,14.0,70,0.00,,,0.00,meteohub,2013-05-01 16:37:00,
2013-05-01 11:42:00,82.2,72.0,29.77,ESE,114,6.0,14.0,71,0.00,,,0.00,meteohub,2013-05-01 16:42:00,
2013-05-01 11:47:00,82.8,72.0,29.77,SE,142,12.0,14.0,70,0.00,,,0.00,meteohub,2013-05-01 16:47:00,
2013-05-01 11:52:00,83.1,72.3,29.77,ESE,110,10.0,14.0,70,0.00,,,0.00,meteohub,2013-05-01 16:52:00,
2013-05-01 11:57:00,83.1,72.7,29.77,ESE,115,5.0,16.0,71,0.00,,,0.00,meteohub,2013-05-01 16:57:00,
2013-05-01 12:02:00,83.1,71.4,29.77,ESE,120,5.0,16.0,68,0.00,,,0.00,meteohub,2013-05-01 17:02:00,
2013-05-01 12:07:00,83.5,71.4,29.77,ENE,74,5.0,13.0,67,0.00,,,0.00,meteohub,2013-05-01 17:07:00,
2013-05-01 12:12:00,83.1,73.9,29.77,ESE,109,7.0,13.0,74,0.00,,,0.00,meteohub,2013-05-01 17:12:00,
2013-05-01 12:17:00,82.6,74.7,29.77,East,86,7.0,16.0,77,0.00,,,0.00,meteohub,2013-05-01 17:17:00,
2013-05-01 12:22:00,81.9,73.9,29.77,East,79,9.0,16.0,77,0.00,,,0.00,meteohub,2013-05-01 17:22:00,
2013-05-01 12:27:00,81.7,74.5,29.77,East,98,17.0,17.0,79,0.00,,,0.00,meteohub,2013-05-01 17:27:00,
2013-05-01 12:32:00,81.9,74.3,29.77,East,86,6.0,18.0,78,0.00,,,0.00,meteohub,2013-05-01 17:32:00,
2013-05-01 12:37:00,82.4,74.1,29.77,ESE,119,10.0,18.0,76,0.00,,,0.00,meteohub,2013-05-01 17:37:00,
2013-05-01 12:42:00,82.2,73.9,29.77,ESE,105,11.0,18.0,76,0.00,,,0.00,meteohub,2013-05-01 17:42:00,
2013-05-01 12:47:00,82.4,74.1,29.77,ESE,113,6.0,16.0,76,0.00,,,0.00,meteohub,2013-05-01 17:47:00,
2013-05-01 12:52:00,82.8,73.6,29.76,East,95,8.0,16.0,74,0.00,,,0.00,meteohub,2013-05-01 17:52:00,
2013-05-01 12:57:00,82.9,73.4,29.76,East,96,12.0,17.0,73,0.00,,,0.00,meteohub,2013-05-01 17:57:00,
2013-05-01 13:02:00,83.5,73.6,29.76,East,85,16.0,17.0,72,0.00,,,0.00,meteohub,2013-05-01 18:02:00,
2013-05-01 13:07:00,83.1,73.2,29.75,ENE,77,12.0,19.0,72,0.00,,,0.00,meteohub,2013-05-01 18:07:00,
2013-05-01 13:12:00,83.5,72.3,29.76,SE,127,12.0,19.0,69,0.00,,,0.00,meteohub,2013-05-01 18:12:00,
2013-05-01 13:17:00,83.8,73.0,29.75,SE,146,11.0,19.0,70,0.00,,,0.00,meteohub,2013-05-01 18:17:00,
2013-05-01 13:22:00,84.4,72.1,29.75,SE,143,4.0,17.0,67,0.00,,,0.00,meteohub,2013-05-01 18:22:00,
2013-05-01 13:27:00,84.4,72.1,29.75,ESE,117,7.0,17.0,67,0.00,,,0.00,meteohub,2013-05-01 18:27:00,
2013-05-01 13:32:00,84.6,72.3,29.75,ESE,107,8.0,15.0,67,0.00,,,0.00,meteohub,2013-05-01 18:32:00,
2013-05-01 13:37:00,84.6,72.3,29.75,ESE,122,7.0,17.0,67,0.00,,,0.00,meteohub,2013-05-01 18:37:00,
2013-05-01 13:42:00,84.7,72.1,29.75,ESE,113,11.0,17.0,66,0.00,,,0.00,meteohub,2013-05-01 18:42:00,
2013-05-01 13:47:00,84.9,72.7,29.75,ESE,103,10.0,17.0,67,0.00,,,0.00,meteohub,2013-05-01 18:47:00,
2013-05-01 13:52:00,84.2,72.0,29.75,ESE,108,7.0,14.0,67,0.00,,,0.00,meteohub,2013-05-01 18:52:00,
2013-05-01 13:57:00,84.4,72.1,29.75,East,84,10.0,14.0,67,0.00,,,0.00,meteohub,2013-05-01 18:57:00,
2013-05-01 14:02:00,84.7,72.1,29.75,ESE,104,10.0,14.0,66,0.00,,,0.00,meteohub,2013-05-01 19:02:00,
2013-05-01 14:07:00,84.9,72.3,29.75,ENE,77,5.0,18.0,66,0.00,,,0.00,meteohub,2013-05-01 19:07:00,
2013-05-01 14:11:00,84.9,72.3,29.75,East,97,11.0,18.0,66,0.00,,,0.00,meteohub,2013-05-01 19:11:00,
2013-05-01 14:17:00,85.1,72.9,29.75,ESE,115,9.0,16.0,67,0.00,,,0.00,meteohub,2013-05-01 19:17:00,
2013-05-01 14:22:00,84.7,72.1,29.75,ESE,113,5.0,16.0,66,0.00,,,0.00,meteohub,2013-05-01 19:22:00,
2013-05-01 14:26:00,84.9,72.3,29.74,SE,132,4.0,17.0,66,0.00,,,0.00,meteohub,2013-05-01 19:26:00,
2013-05-01 14:32:00,85.3,72.7,29.74,ESE,118,9.0,17.0,66,0.00,,,0.00,meteohub,2013-05-01 19:32:00,
2013-05-01 14:37:00,85.3,72.1,29.75,ESE,120,5.0,15.0,65,0.00,,,0.00,meteohub,2013-05-01 19:37:00,
2013-05-01 14:42:00,84.9,72.3,29.75,ESE,117,9.0,15.0,66,0.00,,,0.00,meteohub,2013-05-01 19:42:00,
2013-05-01 14:47:00,84.7,71.6,29.75,East,90,7.0,16.0,65,0.00,,,0.00,meteohub,2013-05-01 19:47:00,
2013-05-01 14:52:00,84.9,72.3,29.74,ENE,70,11.0,18.0,66,0.00,,,0.00,meteohub,2013-05-01 19:52:00,
2013-05-01 14:57:00,85.3,72.7,29.74,East,94,5.0,18.0,66,0.00,,,0.00,meteohub,2013-05-01 19:57:00,
2013-05-01 15:02:00,85.1,72.0,29.74,ESE,104,9.0,16.0,65,0.00,,,0.00,meteohub,2013-05-01 20:02:00,
2013-05-01 15:07:00,85.3,73.0,29.73,ESE,112,11.0,16.0,67,0.00,,,0.00,meteohub,2013-05-01 20:07:00,
2013-05-01 15:12:00,85.1,72.5,29.74,SE,126,12.0,19.0,66,0.00,,,0.00,meteohub,2013-05-01 20:12:00,
2013-05-01 15:17:00,85.1,72.9,29.74,NE,51,11.0,19.0,67,0.00,,,0.00,meteohub,2013-05-01 20:17:00,
2013-05-01 15:22:00,85.1,73.4,29.74,East,98,8.0,19.0,68,0.00,,,0.00,meteohub,2013-05-01 20:22:00,
2013-05-01 15:27:00,85.3,73.6,29.74,ESE,117,9.0,19.0,68,0.00,,,0.00,meteohub,2013-05-01 20:27:00,
2013-05-01 15:32:00,85.3,73.6,29.73,East,85,16.0,19.0,68,0.00,,,0.00,meteohub,2013-05-01 20:32:00,
2013-05-01 15:37:00,84.7,73.4,29.73,ESE,107,11.0,19.0,69,0.00,,,0.00,meteohub,2013-05-01 20:37:00,
2013-05-01 15:42:00,84.7,73.9,29.74,East,79,8.0,19.0,70,0.00,,,0.00,meteohub,2013-05-01 20:42:00,
2013-05-01 15:47:00,84.7,73.9,29.74,ENE,72,9.0,19.0,70,0.00,,,0.00,meteohub,2013-05-01 20:47:00,
2013-05-01 15:52:00,84.4,73.6,29.73,East,90,10.0,16.0,70,0.00,,,0.00,meteohub,2013-05-01 20:52:00,
2013-05-01 15:57:00,83.8,73.4,29.73,East,97,16.0,19.0,71,0.00,,,0.00,meteohub,2013-05-01 20:57:00,
2013-05-01 16:02:00,83.7,73.2,29.74,East,80,14.0,19.0,71,0.00,,,0.00,meteohub,2013-05-01 21:02:00,
2013-05-01 16:07:00,83.5,73.6,29.73,East,86,8.0,19.0,72,0.00,,,0.00,meteohub,2013-05-01 21:07:00,
2013-05-01 16:12:00,83.3,73.4,29.74,East,94,10.0,18.0,72,0.00,,,0.00,meteohub,2013-05-01 21:12:00,
2013-05-01 16:17:00,83.5,73.0,29.74,ESE,116,7.0,19.0,71,0.00,,,0.00,meteohub,2013-05-01 21:17:00,
2013-05-01 16:22:00,83.7,73.2,29.74,East,86,10.0,19.0,71,0.00,,,0.00,meteohub,2013-05-01 21:22:00,
2013-05-01 16:27:00,83.5,73.0,29.74,East,84,5.0,19.0,71,0.00,,,0.00,meteohub,2013-05-01 21:27:00,
2013-05-01 16:32:00,83.1,72.7,29.73,ESE,113,13.0,16.0,71,0.00,,,0.00,meteohub,2013-05-01 21:32:00,
2013-05-01 16:37:00,83.1,73.2,29.73,East,100,10.0,16.0,72,0.00,,,0.00,meteohub,2013-05-01 21:37:00,
2013-05-01 16:42:00,82.9,73.0,29.74,ENE,70,9.0,17.0,72,0.00,,,0.00,meteohub,2013-05-01 21:42:00,
2013-05-01 16:47:00,82.9,73.0,29.73,East,91,13.0,17.0,72,0.00,,,0.00,meteohub,2013-05-01 21:47:00,
2013-05-01 16:52:00,82.9,73.0,29.74,ENE,77,6.0,17.0,72,0.00,,,0.00,meteohub,2013-05-01 21:52:00,
2013-05-01 16:57:00,82.8,73.2,29.74,East,88,14.0,15.0,73,0.00,,,0.00,meteohub,2013-05-01 21:57:00,
2013-05-01 17:02:00,82.4,72.5,29.74,East,96,7.0,17.0,72,0.00,,,0.00,meteohub,2013-05-01 22:02:00,
2013-05-01 17:07:00,82.2,72.3,29.74,ENE,77,11.0,17.0,72,0.00,,,0.00,meteohub,2013-05-01 22:07:00,
2013-05-01 17:12:00,82.6,72.7,29.74,East,81,9.0,19.0,72,0.00,,,0.00,meteohub,2013-05-01 22:12:00,
2013-05-01 17:17:00,82.8,72.3,29.74,ENE,58,8.0,19.0,71,0.00,,,0.00,meteohub,2013-05-01 22:17:00,
2013-05-01 17:22:00,82.8,72.3,29.74,East,84,19.0,19.0,71,0.00,,,0.00,meteohub,2013-05-01 22:22:00,
2013-05-01 17:27:00,82.6,72.7,29.74,East,80,8.0,20.0,72,0.00,,,0.00,meteohub,2013-05-01 22:27:00,
2013-05-01 17:32:00,82.6,72.1,29.74,ENE,65,6.0,20.0,71,0.00,,,0.00,meteohub,2013-05-01 22:32:00,
2013-05-01 17:37:00,82.6,72.7,29.74,East,84,12.0,20.0,72,0.00,,,0.00,meteohub,2013-05-01 22:37:00,
2013-05-01 17:42:00,82.0,72.1,29.74,East,81,10.0,16.0,72,0.00,,,0.00,meteohub,2013-05-01 22:42:00,
2013-05-01 17:47:00,82.2,72.3,29.74,NE,41,6.0,16.0,72,0.00,,,0.00,meteohub,2013-05-01 22:47:00,
2013-05-01 17:52:00,82.6,72.1,29.74,East,82,14.0,15.0,71,0.00,,,0.00,meteohub,2013-05-01 22:52:00,
2013-05-01 17:57:00,82.4,72.5,29.74,SE,127,11.0,15.0,72,0.00,,,0.00,meteohub,2013-05-01 22:57:00,
2013-05-01 18:02:00,82.0,72.1,29.74,East,82,14.0,15.0,72,0.00,,,0.00,meteohub,2013-05-01 23:02:00,
2013-05-01 18:07:00,81.9,72.0,29.74,ENE,78,9.0,16.0,72,0.00,,,0.00,meteohub,2013-05-01 23:07:00,
2013-05-01 18:12:00,81.9,72.0,29.74,East,100,8.0,17.0,72,0.00,,,0.00,meteohub,2013-05-01 23:12:00,
2013-05-01 18:17:00,81.9,72.0,29.74,ENE,77,15.0,18.0,72,0.00,,,0.00,meteohub,2013-05-01 23:17:00,
2013-05-01 18:22:00,81.9,72.0,29.74,SE,134,11.0,18.0,72,0.00,,,0.00,meteohub,2013-05-01 23:22:00,
2013-05-01 18:27:00,81.5,72.0,29.74,East,82,6.0,18.0,73,0.00,,,0.00,meteohub,2013-05-01 23:27:00,
2013-05-01 18:32:00,81.0,72.0,29.75,ESE,120,6.0,16.0,74,0.00,,,0.00,meteohub,2013-05-01 23:32:00,
2013-05-01 18:37:00,80.8,71.8,29.74,East,91,10.0,16.0,74,0.00,,,0.00,meteohub,2013-05-01 23:37:00,
2013-05-01 18:42:00,80.2,71.6,29.75,East,83,12.0,16.0,75,0.00,,,0.00,meteohub,2013-05-01 23:42:00,
2013-05-01 18:47:00,80.1,71.8,29.75,East,87,10.0,16.0,76,0.00,,,0.00,meteohub,2013-05-01 23:47:00,
2013-05-01 18:52:00,79.9,71.2,29.75,ESE,103,13.0,17.0,75,0.00,,,0.00,meteohub,2013-05-01 23:52:00,
2013-05-01 18:57:00,79.7,71.1,29.75,SE,141,9.0,17.0,75,0.00,,,0.00,meteohub,2013-05-01 23:57:00,
2013-05-01 19:02:00,79.5,70.9,29.75,East,98,13.0,17.0,75,0.00,,,0.00,meteohub,2013-05-02 00:02:00,
2013-05-01 19:07:00,79.3,70.7,29.75,East,91,13.0,18.0,75,0.00,,,0.00,meteohub,2013-05-02 00:07:00,
2013-05-01 19:12:00,79.2,70.9,29.75,ESE,118,7.0,18.0,76,0.00,,,0.00,meteohub,2013-05-02 00:12:00,
2013-05-01 19:17:00,79.2,70.9,29.75,East,86,6.0,18.0,76,0.00,,,0.00,meteohub,2013-05-02 00:17:00,
2013-05-01 19:22:00,78.8,70.5,29.75,East,99,15.0,17.0,76,0.00,,,0.00,meteohub,2013-05-02 00:22:00,
2013-05-01 19:27:00,78.6,71.2,29.75,ENE,75,11.0,17.0,78,0.00,,,0.00,meteohub,2013-05-02 00:27:00,
2013-05-01 19:32:00,78.3,70.9,29.75,East,98,6.0,18.0,78,0.00,,,0.00,meteohub,2013-05-02 00:32:00,
2013-05-01 19:37:00,78.1,71.1,29.75,SE,134,5.0,18.0,79,0.00,,,0.00,meteohub,2013-05-02 00:37:00,
2013-05-01 19:42:00,77.7,71.1,29.75,ESE,113,9.0,18.0,80,0.00,,,0.00,meteohub,2013-05-02 00:42:00,
2013-05-01 19:47:00,77.5,71.2,29.75,East,84,8.0,16.0,81,0.00,,,0.00,meteohub,2013-05-02 00:47:00,
2013-05-01 19:52:00,77.2,71.2,29.75,SE,129,8.0,15.0,82,0.00,,,0.00,meteohub,2013-05-02 00:52:00,
2013-05-01 19:57:00,77.0,71.4,29.76,East,101,6.0,15.0,83,0.00,,,0.00,meteohub,2013-05-02 00:57:00,
2013-05-01 20:02:00,76.8,71.6,29.76,ESE,111,12.0,15.0,84,0.00,,,0.00,meteohub,2013-05-02 01:02:00,
2013-05-01 20:07:00,76.6,71.4,29.76,ESE,113,9.0,15.0,84,0.00,,,0.00,meteohub,2013-05-02 01:07:00,
2013-05-01 20:12:00,76.5,71.6,29.77,East,101,6.0,14.0,85,0.00,,,0.00,meteohub,2013-05-02 01:12:00,
2013-05-01 20:17:00,76.3,71.8,29.77,ESE,102,11.0,14.0,86,0.00,,,0.00,meteohub,2013-05-02 01:17:00,
2013-05-01 20:21:00,75.9,71.4,29.77,ESE,118,6.0,14.0,86,0.00,,,0.00,meteohub,2013-05-02 01:21:00,
2013-05-01 20:26:00,75.7,71.2,29.77,ESE,115,11.0,15.0,86,0.00,,,0.00,meteohub,2013-05-02 01:26:00,
2013-05-01 20:31:00,75.7,71.2,29.77,ESE,102,10.0,16.0,86,0.00,,,0.00,meteohub,2013-05-02 01:31:00,
2013-05-01 20:36:00,75.6,71.1,29.77,SE,124,8.0,16.0,86,0.00,,,0.00,meteohub,2013-05-02 01:36:00,
2013-05-01 20:41:00,75.6,71.1,29.77,ESE,121,11.0,16.0,86,0.00,,,0.00,meteohub,2013-05-02 01:41:00,
2013-05-01 20:46:00,75.4,71.2,29.77,SE,127,9.0,16.0,87,0.00,,,0.00,meteohub,2013-05-02 01:46:00,
2013-05-01 20:51:00,75.4,71.2,29.78,East,84,9.0,16.0,87,0.00,,,0.00,meteohub,2013-05-02 01:51:00,
2013-05-01 20:56:00,75.2,71.4,29.78,SE,127,8.0,16.0,88,0.00,,,0.00,meteohub,2013-05-02 01:56:00,
2013-05-01 21:01:00,75.0,71.2,29.78,East,86,8.0,13.0,88,0.00,,,0.00,meteohub,2013-05-02 02:01:00,
2013-05-01 21:06:00,74.8,71.4,29.78,East,84,7.0,13.0,89,0.00,,,0.00,meteohub,2013-05-02 02:06:00,
2013-05-01 21:11:00,74.8,71.4,29.78,SE,138,5.0,13.0,89,0.00,,,0.00,meteohub,2013-05-02 02:11:00,
2013-05-01 21:16:00,74.8,71.4,29.78,ENE,66,6.0,11.0,89,0.00,,,0.00,meteohub,2013-05-02 02:16:00,
2013-05-01 21:21:00,74.7,71.2,29.79,East,87,5.0,11.0,89,0.00,,,0.00,meteohub,2013-05-02 02:21:00,
2013-05-01 21:26:00,74.7,71.2,29.79,East,98,5.0,12.0,89,0.00,,,0.00,meteohub,2013-05-02 02:26:00,
2013-05-01 21:31:00,74.5,71.4,29.79,ESE,105,7.0,12.0,90,0.00,,,0.00,meteohub,2013-05-02 02:31:00,
2013-05-01 21:36:00,74.5,71.4,29.79,SE,127,6.0,12.0,90,0.00,,,0.00,meteohub,2013-05-02 02:36:00,
2013-05-01 21:41:00,74.5,71.4,29.79,East,96,5.0,12.0,90,0.00,,,0.00,meteohub,2013-05-02 02:41:00,
2013-05-01 21:46:00,74.3,71.2,29.79,ESE,121,5.0,13.0,90,0.00,,,0.00,meteohub,2013-05-02 02:46:00,
2013-05-01 21:51:00,74.1,71.1,29.79,East,91,12.0,13.0,90,0.00,,,0.00,meteohub,2013-05-02 02:51:00,
2013-05-01 21:56:00,74.1,71.1,29.80,ESE,109,8.0,15.0,90,0.00,,,0.00,meteohub,2013-05-02 02:56:00,
2013-05-01 22:01:00,74.1,71.1,29.80,East,100,7.0,15.0,90,0.00,,,0.00,meteohub,2013-05-02 03:01:00,
2013-05-01 22:06:00,74.1,71.1,29.80,ESE,116,8.0,12.0,90,0.00,,,0.00,meteohub,2013-05-02 03:06:00,
2013-05-01 22:11:00,74.1,71.1,29.80,East,89,7.0,12.0,90,0.00,,,0.00,meteohub,2013-05-02 03:11:00,
2013-05-01 22:16:00,73.9,71.1,29.80,East,79,5.0,12.0,91,0.00,,,0.00,meteohub,2013-05-02 03:16:00,
2013-05-01 22:21:00,73.9,71.1,29.80,East,92,6.0,10.0,91,0.00,,,0.00,meteohub,2013-05-02 03:21:00,
2013-05-01 22:26:00,73.8,70.9,29.80,East,98,4.0,11.0,91,0.00,,,0.00,meteohub,2013-05-02 03:26:00,
2013-05-01 22:31:00,73.8,70.9,29.81,ENE,72,5.0,11.0,91,0.00,,,0.00,meteohub,2013-05-02 03:31:00,
2013-05-01 22:36:00,73.8,70.9,29.81,ESE,103,8.0,11.0,91,0.00,,,0.00,meteohub,2013-05-02 03:36:00,
2013-05-01 22:41:00,73.6,70.7,29.81,ESE,102,3.0,11.0,91,0.00,,,0.00,meteohub,2013-05-02 03:41:00,
2013-05-01 22:46:00,73.6,70.7,29.82,ESE,119,3.0,11.0,91,0.00,,,0.00,meteohub,2013-05-02 03:46:00,
2013-05-01 22:51:00,73.6,70.7,29.82,ESE,106,6.0,10.0,91,0.00,,,0.00,meteohub,2013-05-02 03:51:00,
2013-05-01 22:56:00,73.6,70.7,29.83,East,93,5.0,10.0,91,0.00,,,0.00,meteohub,2013-05-02 03:56:00,
2013-05-01 23:01:00,73.6,70.7,29.83,ESE,108,7.0,10.0,91,0.00,,,0.00,meteohub,2013-05-02 04:01:00,
2013-05-01 23:02:00,73.6,70.7,29.83,ESE,115,5.0,10.0,91,0.00,,,0.00,meteohub,2013-05-02 04:02:00,
2013-05-01 23:07:00,73.6,70.7,29.83,ESE,106,5.0,10.0,91,0.00,,,0.00,meteohub,2013-05-02 04:07:00,
2013-05-01 23:12:00,73.6,70.7,29.83,ENE,70,4.0,10.0,91,0.00,,,0.00,meteohub,2013-05-02 04:12:00,
2013-05-01 23:17:00,73.6,70.7,29.84,ENE,65,3.0,9.0,91,0.00,,,0.00,meteohub,2013-05-02 04:17:00,
2013-05-01 23:22:00,73.4,70.5,29.84,ENE,65,5.0,9.0,91,0.00,,,0.00,meteohub,2013-05-02 04:22:00,
2013-05-01 23:27:00,73.2,70.7,29.84,ENE,77,3.0,8.0,92,0.00,,,0.00,meteohub,2013-05-02 04:27:00,
2013-05-01 23:32:00,73.2,70.7,29.84,ENE,74,5.0,6.0,92,0.00,,,0.00,meteohub,2013-05-02 04:32:00,
2013-05-01 23:37:00,73.2,70.7,29.84,East,91,5.0,6.0,92,0.00,,,0.00,meteohub,2013-05-02 04:37:00,
2013-05-01 23:42:00,73.2,70.7,29.84,ESE,105,3.0,7.0,92,0.00,,,0.00,meteohub,2013-05-02 04:42:00,
2013-05-01 23:47:00,73.2,70.7,29.84,East,93,3.0,7.0,92,0.00,,,0.00,meteohub,2013-05-02 04:47:00,
2013-05-01 23:52:00,73.2,70.7,29.84,East,84,5.0,7.0,92,0.00,,,0.00,meteohub,2013-05-02 04:52:00,
2013-05-01 23:57:00,73.2,71.1,29.83,ESE,110,4.0,7.0,93,0.00,,,0.00,meteohub,2013-05-02 04:57:00,